createdAt,value
2023-01-30T00:00:32.506Z,1.51
2023-01-30T00:04:55.282Z,1.43
2023-01-30T00:08:58.456Z,1.38
2023-01-30T00:13:01.206Z,1.22
2023-01-30T00:17:12.425Z,1.11
2023-01-30T00:21:15.769Z,0.99
2023-01-30T00:25:18.679Z,0.87
2023-01-30T00:29:21.490Z,0.76
2023-01-30T00:33:56.548Z,0.72
2023-01-30T00:37:59.751Z,0.69
2023-01-30T00:42:36.895Z,0.65
2023-01-30T00:51:24.634Z,0.59
2023-01-30T00:55:28.770Z,0.61
2023-01-30T00:59:31.521Z,0.63
2023-01-30T01:03:39.540Z,0.67
2023-01-30T01:07:42.319Z,0.69
2023-01-30T01:11:45.082Z,0.68
2023-01-30T01:15:53.818Z,0.63
2023-01-30T01:19:56.561Z,0.59
2023-01-30T01:24:00.793Z,0.55
2023-01-30T01:28:03.954Z,0.55
2023-01-30T01:32:12.267Z,0.51
2023-01-30T01:36:29.314Z,0.48
2023-01-30T01:45:52.043Z,0.52
2023-01-30T01:49:55.258Z,0.56
2023-01-30T01:54:36.312Z,0.55
2023-01-30T01:58:45.996Z,0.64
2023-01-30T02:03:17.838Z,0.70
2023-01-30T02:07:22.263Z,0.75
2023-01-30T02:11:56.036Z,0.81
2023-01-30T02:16:01.772Z,0.88
2023-01-30T02:20:28.565Z,0.90
2023-01-30T02:25:08.903Z,0.92
2023-01-30T02:29:40.136Z,0.87
2023-01-30T02:34:29.652Z,0.82
2023-01-30T02:38:46.001Z,0.84
2023-01-30T02:42:55.971Z,0.86
2023-01-30T02:47:32.347Z,0.93
2023-01-30T02:51:39.698Z,1.00
2023-01-30T02:55:43.857Z,1.05
2023-01-30T03:12:08.819Z,1.15
2023-01-30T03:16:21.720Z,1.19
2023-01-30T03:20:24.877Z,1.23
2023-01-30T03:24:28.049Z,1.23
2023-01-30T03:28:55.922Z,1.22
2023-01-30T03:32:58.949Z,1.28
2023-01-30T03:37:02.651Z,1.33
2023-01-30T03:41:06.239Z,1.36
2023-01-30T03:45:11.218Z,1.39
2023-01-30T03:49:14.266Z,1.43
2023-01-30T03:53:25.873Z,1.50
2023-01-30T03:57:28.759Z,1.56
2023-01-30T04:02:00.910Z,1.62
2023-01-30T04:06:03.938Z,1.64
2023-01-30T04:10:07.403Z,1.63
2023-01-30T04:14:10.385Z,1.68
2023-01-30T04:18:13.366Z,1.76
2023-01-30T04:22:23.637Z,1.80
2023-01-30T04:26:26.774Z,1.81
2023-01-30T04:30:32.163Z,1.81
2023-01-30T04:34:35.151Z,1.77
2023-01-30T04:38:38.895Z,1.75
2023-01-30T04:42:41.853Z,1.76
2023-01-30T04:46:44.873Z,1.80
2023-01-30T04:50:50.226Z,1.86
2023-01-30T04:54:53.189Z,1.87
2023-01-30T04:58:56.231Z,1.89
2023-01-30T05:02:59.488Z,1.99
2023-01-30T05:07:02.463Z,2.07
2023-01-30T05:11:05.676Z,2.11
2023-01-30T05:15:09.520Z,2.18
2023-01-30T05:19:39.673Z,2.30
2023-01-30T05:23:42.925Z,2.39
2023-01-30T05:27:46.235Z,2.44
2023-01-30T05:31:49.289Z,2.52
2023-01-30T05:35:59.651Z,2.61
2023-01-30T05:40:02.597Z,2.73
2023-01-30T05:44:14.088Z,2.79
2023-01-30T05:48:17.131Z,2.93
2023-01-30T05:53:17.922Z,3.02
2023-01-30T05:57:20.916Z,3.16
2023-01-30T06:01:28.884Z,3.28
2023-01-30T06:05:31.866Z,3.36
2023-01-30T06:09:53.594Z,3.43
2023-01-30T06:14:28.366Z,3.48
2023-01-30T06:18:31.402Z,3.53
2023-01-30T06:22:34.380Z,3.60
2023-01-30T06:27:04.186Z,3.65
2023-01-30T06:31:08.355Z,3.64
2023-01-30T06:35:11.435Z,3.68
2023-01-30T06:39:14.412Z,3.71
2023-01-30T06:43:17.584Z,3.78
2023-01-30T06:47:21.643Z,3.79
2023-01-30T06:51:25.188Z,3.79
2023-01-30T06:55:28.697Z,3.76
2023-01-30T06:59:31.827Z,3.77
2023-01-30T07:03:34.980Z,3.73
2023-01-30T07:08:02.846Z,3.70
2023-01-30T07:12:06.047Z,3.59
2023-01-30T07:16:09.157Z,3.54
2023-01-30T07:20:12.362Z,3.62
2023-01-30T07:24:15.521Z,3.61
2023-01-30T07:28:18.664Z,3.68
2023-01-30T07:32:21.751Z,3.69
2023-01-30T07:36:24.692Z,3.72
2023-01-30T07:40:28.049Z,3.72
2023-01-30T07:44:56.745Z,3.73
2023-01-30T07:48:59.955Z,3.78
2023-01-30T07:53:07.201Z,3.80
2023-01-30T07:57:10.206Z,3.81
2023-01-30T08:01:14.336Z,3.95
2023-01-30T08:05:17.418Z,4.05
2023-01-30T08:09:20.520Z,4.11
2023-01-30T08:13:54.677Z,4.14
2023-01-30T08:18:25.737Z,4.13
2023-01-30T08:22:29.273Z,4.21
2023-01-30T08:26:32.411Z,4.21
2023-01-30T08:31:09.126Z,4.23
2023-01-30T08:35:12.259Z,4.27
2023-01-30T08:39:16.017Z,4.36
2023-01-30T08:43:19.316Z,4.41
2023-01-30T08:47:22.297Z,4.37
2023-01-30T08:51:34.184Z,4.37
2023-01-30T08:56:02.600Z,4.38
2023-01-30T09:00:06.540Z,4.37
2023-01-30T09:04:09.638Z,4.36
2023-01-30T09:08:36.715Z,4.39
2023-01-30T09:12:39.760Z,4.41
2023-01-30T09:16:42.747Z,4.50
2023-01-30T09:20:45.781Z,4.55
2023-01-30T09:24:48.931Z,4.57
2023-01-30T09:28:54.156Z,4.49
2023-01-30T09:32:57.112Z,4.46
2023-01-30T09:37:04.372Z,4.41
2023-01-30T09:41:26.481Z,4.22
2023-01-30T09:45:49.566Z,4.05
2023-01-30T09:49:58.491Z,3.94
2023-01-30T09:54:36.557Z,3.87
2023-01-30T09:59:31.599Z,3.77
2023-01-30T10:03:40.219Z,3.75
2023-01-30T10:08:01.670Z,3.77
2023-01-30T10:12:16.995Z,3.79
2023-01-30T10:16:26.174Z,3.82
2023-01-30T10:20:48.434Z,3.91
2023-01-30T10:25:39.712Z,4.03
2023-01-30T10:29:48.756Z,4.16
2023-01-30T10:33:51.777Z,4.36
2023-01-30T10:38:14.117Z,4.53
2023-01-30T10:42:23.894Z,4.56
2023-01-30T10:46:43.660Z,4.50
2023-01-30T10:51:03.192Z,4.47
2023-01-30T10:55:12.139Z,4.42
2023-01-30T10:59:46.244Z,4.36
2023-01-30T11:04:37.402Z,4.41
2023-01-30T11:09:05.149Z,4.54
2023-01-30T11:13:18.070Z,4.69
2023-01-30T11:18:41.400Z,4.79
2023-01-30T11:23:38.315Z,4.99
2023-01-30T13:58:35.389Z,5.39
2023-01-30T14:03:03.577Z,5.50
2023-01-30T14:07:12.786Z,5.53
2023-01-30T14:11:36.218Z,5.66
2023-01-30T14:16:05.674Z,5.71
2023-01-30T14:20:21.049Z,5.64
2023-01-30T14:25:14.306Z,5.60
2023-01-30T14:29:42.080Z,5.55
2023-01-30T14:33:50.555Z,5.51
2023-01-30T14:43:53.999Z,5.49
2023-01-30T14:48:22.435Z,5.58
2023-01-30T14:52:41.694Z,5.65
2023-01-30T14:57:18.376Z,5.64
2023-01-30T15:01:21.693Z,5.58
2023-01-30T15:05:38.822Z,5.47
2023-01-30T15:09:53.579Z,5.37
2023-01-30T15:14:23.090Z,5.33
2023-01-30T15:18:47.972Z,5.26
2023-01-30T15:23:26.779Z,5.19
2023-01-30T15:27:58.966Z,5.10
2023-01-30T15:32:14.956Z,5.09
2023-01-30T15:36:19.119Z,5.12
2023-01-30T15:40:24.388Z,5.13
2023-01-30T15:44:42.683Z,5.14
2023-01-30T15:48:55.033Z,5.21
2023-01-30T15:52:59.083Z,5.23
2023-01-30T15:57:02.300Z,5.25
2023-01-30T16:01:06.956Z,5.30
2023-01-30T16:05:25.226Z,5.26
2023-01-30T16:09:28.618Z,5.25
2023-01-30T16:13:33.474Z,5.27
2023-01-30T16:17:36.639Z,5.31
2023-01-30T16:21:47.689Z,5.33
2023-01-30T16:25:53.188Z,5.32
2023-01-30T16:30:30.808Z,5.35
2023-01-30T16:34:38.774Z,5.34
2023-01-30T16:38:57.552Z,5.29
2023-01-30T16:43:29.432Z,5.28
2023-01-30T16:47:34.687Z,5.30
2023-01-30T16:51:38.391Z,5.29
2023-01-30T16:56:49.394Z,5.36
2023-01-30T17:00:52.720Z,5.42
2023-01-30T17:05:21.700Z,5.42
2023-01-30T17:09:46.473Z,5.39
2023-01-30T17:14:14.967Z,5.34
2023-01-30T17:18:18.467Z,5.20
2023-01-30T17:22:24.631Z,5.07
2023-01-30T17:26:28.704Z,4.97
2023-01-30T17:30:31.888Z,4.79
2023-01-30T17:34:35.066Z,4.67
2023-01-30T17:38:38.238Z,4.62
2023-01-30T17:42:41.685Z,4.45
2023-01-30T17:46:51.089Z,4.31
2023-01-30T17:50:54.210Z,3.95
2023-01-30T17:55:49.521Z,3.69
2023-01-30T17:59:52.685Z,3.49
2023-01-30T18:03:55.683Z,3.54
2023-01-30T18:07:58.810Z,3.56
2023-01-30T18:12:04.544Z,3.58
2023-01-30T18:16:15.070Z,3.60
2023-01-30T18:20:20.692Z,3.73
2023-01-30T18:24:24.405Z,3.79
2023-01-30T18:34:21.942Z,4.08
2023-01-30T18:38:28.129Z,4.15
2023-01-30T18:42:31.220Z,4.21
2023-01-30T18:46:34.722Z,4.26
2023-01-30T18:50:37.850Z,4.32
2023-01-30T18:54:40.885Z,4.32
2023-01-30T18:58:49.702Z,4.37
2023-01-30T19:02:53.740Z,4.37
2023-01-30T19:07:11.208Z,4.41
2023-01-30T19:11:36.075Z,4.50
2023-01-30T19:15:39.199Z,4.55
2023-01-30T19:19:50.354Z,4.59
2023-01-30T19:23:54.555Z,4.48
2023-01-30T19:28:03.171Z,4.34
2023-01-30T19:32:06.571Z,4.09
2023-01-30T19:36:18.675Z,4.07
2023-01-30T19:40:22.055Z,4.00
2023-01-30T19:44:25.772Z,4.07
2023-01-30T19:48:28.791Z,4.00
2023-01-30T19:52:32.424Z,3.97
2023-01-30T19:56:51.994Z,4.00
2023-01-30T20:00:56.027Z,3.91
2023-01-30T20:05:28.418Z,3.90
2023-01-30T20:09:31.472Z,3.83
2023-01-30T20:13:36.965Z,3.92
2023-01-30T20:17:40.033Z,3.91
2023-01-30T20:21:44.343Z,3.94
2023-01-30T20:25:48.644Z,4.06
2023-01-30T20:29:55.951Z,4.11
2023-01-30T20:34:04.646Z,4.14
2023-01-30T20:38:07.915Z,4.14
2023-01-30T20:42:18.815Z,4.12
2023-01-30T20:46:24.560Z,4.07
2023-01-30T20:50:27.709Z,4.02
2023-01-30T20:54:30.767Z,4.03
2023-01-30T20:58:34.076Z,4.05
2023-01-30T21:02:37.139Z,4.04
2023-01-30T21:06:45.858Z,4.00
2023-01-30T21:10:49.881Z,4.08
2023-01-30T21:15:02.738Z,4.05
2023-01-30T21:19:08.466Z,4.07
2023-01-30T21:23:28.897Z,4.12
2023-01-30T21:27:31.982Z,4.12
2023-01-30T21:32:31.483Z,4.13
2023-01-30T21:36:34.495Z,4.21
2023-01-30T21:41:24.621Z,4.27
2023-01-30T21:45:27.725Z,4.36
2023-01-30T21:50:34.081Z,4.45
2023-01-30T21:54:37.759Z,4.50
2023-01-30T21:58:40.816Z,4.48
2023-01-30T22:02:43.866Z,4.51
2023-01-30T22:07:10.182Z,4.50
2023-01-30T22:11:20.609Z,4.53
2023-01-30T22:15:23.689Z,4.54
2023-01-30T22:20:19.848Z,4.54
2023-01-30T22:24:22.999Z,4.59
2023-01-30T22:28:58.185Z,4.61
2023-01-30T22:33:01.385Z,4.65
2023-01-30T22:37:04.420Z,4.70
2023-01-30T22:41:36.352Z,4.73
2023-01-30T22:45:39.461Z,4.82
2023-01-30T22:49:42.759Z,4.83
2023-01-30T22:53:51.368Z,4.85
2023-01-30T22:57:54.397Z,4.91
2023-01-30T23:01:57.536Z,4.94
2023-01-30T23:12:09.125Z,4.91
2023-01-30T23:21:57.151Z,4.99
2023-01-30T23:26:02.125Z,4.95
2023-01-30T23:35:47.632Z,4.89
2023-01-30T23:39:50.712Z,4.69
2023-01-30T23:43:54.545Z,4.71
2023-01-30T23:53:45.050Z,4.80
2023-01-30T23:58:49.243Z,4.73
